首页
METAR-TAF:

METAR-TAF

机场 :

马斯特里赫特亚琛机场

马斯特里赫特 亚琛, 荷兰

纬度: 50-55N, 经度: 005-47E, 海拔: 114米

当前天气观测

该预报发布于26分钟前的02:25 UTC
风速10节,风向北转东北,在东转东北之间变化
温度 16°C
湿度 82%
气压 1027 hPa
能见度10公里或以上

METAR: EHBK 270225Z AUTO 03010KT 360V060 9999 NCD 16/13 Q1027

时间: 04:51 (02:51 UTC)

预报

该预报发布于3小时和51分钟前的23:00 UTC
预报有效从27日的 00点(UTC)到 28日的 06点(UTC)
风速8节,风向北转东北
能见度10公里或以上
1500米以下无云,无积雨云
几率 30%
从 27日的 04点(UTC)到 27日的 07点(UTC)
多云层高于1300英尺

TAF: EHBK 262300Z 2700/2806 02008KT CAVOK PROB30 2704/2707 BKN013

超过4000个机场的气象观测和天气预报(METAR&TAF报告)。

可查询的气象台以黄色和红色小点在地图上表示。

将鼠标移到小点上方,可查看气象台名称。

然后点击查看天气观测和预报。

如需切换地图:点击带黑十字的绿色按钮放大地图;点击带横线的绿色按钮缩小地图;或者点击绿色箭头查看邻近地区的地图。


METAR-TAF: